WetterOnline ( https://www.wetteronline.ch )

Wetter aktuell Kassel

Aktuelles Wetter: Schauenburg-Elgershausen (317m)

6-stündlich | Neueste Meldungen
Ortszeit Temperatur Wetter
Mi, 19.06. 2:00 17.7° C bedeckt
Di, 18.06. 20:00 23.9° C wolkig
Di, 18.06. 14:00 26.1° C leicht bewölkt
Di, 18.06. 8:00 20.6° C leicht bewölkt
Di, 18.06. 2:00 16.1° C fast wolkenlos
Mo, 17.06. 20:00 23.3° C leicht bewölkt
Mo, 17.06. 14:00 22.9° C wolkig
Mo, 17.06. 8:00 15.0° C wolkenlos
Ortszeit Temperatur Wetter
Mi, 19.06. 5:30 15.7° C bedeckt
Mi, 19.06. 5:20 15.7° C bedeckt
Mi, 19.06. 5:10 16.0° C bedeckt
Mi, 19.06. 5:00 15.9° C bedeckt
Mi, 19.06. 4:50 15.9° C bedeckt
Mi, 19.06. 4:40 15.8° C bedeckt
Mi, 19.06. 4:30 16.7° C bedeckt
Mi, 19.06. 4:00 16.7° C bedeckt
Mi, 19.06. 3:30 16.7° C wolkig
Mi, 19.06. 3:00 17.3° C bewölkt
Mi, 19.06. 2:30 17.5° C bedeckt
Ortszeit Relative Feuchte Sichtweite
Mi, 19.06. 2:00 81% 40 km
Di, 18.06. 20:00 59% 35 km
Di, 18.06. 14:00 42% 40 km
Di, 18.06. 8:00 59% 45 km
Di, 18.06. 2:00 78% 50 km
Mo, 17.06. 20:00 49% >70 km
Mo, 17.06. 14:00 49% >70 km
Mo, 17.06. 8:00 87% 20 km
Ortszeit Relative Feuchte Sichtweite
Mi, 19.06. 5:30 86% 40 km
Mi, 19.06. 5:20 86% -
Mi, 19.06. 5:10 86% -
Mi, 19.06. 5:00 86% 30 km
Mi, 19.06. 4:50 86% -
Mi, 19.06. 4:40 86% -
Mi, 19.06. 4:30 81% 35 km
Mi, 19.06. 4:00 84% 35 km
Mi, 19.06. 3:30 85% 40 km
Mi, 19.06. 3:00 84% 40 km
Mi, 19.06. 2:30 82% 40 km
Ortszeit Niederschlagsmenge Niederschlagsart
Mi, 19.06. 2:00 0.0 l/m2 in 6 Std. -
Di, 18.06. 20:00 0.0 l/m2 in 12 Std. -
Di, 18.06. 14:00 0.0 l/m2 in 6 Std. -
Di, 18.06. 8:00 0.0 l/m2 in 12 Std. -
Di, 18.06. 2:00 0.0 l/m2 in 6 Std. -
Mo, 17.06. 20:00 0.0 l/m2 in 12 Std. -
Mo, 17.06. 14:00 0.0 l/m2 in 6 Std. -
Mo, 17.06. 8:00 0.0 l/m2 in 12 Std. -
Ortszeit Niederschlagsmenge Niederschlagsart
Mi, 19.06. 5:30 0.0 l/m2 in 1 Std. -
Mi, 19.06. 5:20 keine Meldung -
Mi, 19.06. 5:10 keine Meldung -
Mi, 19.06. 5:00 0.0 l/m2 in 1 Std. -
Mi, 19.06. 4:50 keine Meldung -
Mi, 19.06. 4:40 keine Meldung -
Mi, 19.06. 4:30 0.0 l/m2 in 1 Std. -
Mi, 19.06. 4:00 0.0 l/m2 in 1 Std. -
Mi, 19.06. 3:30 0.0 l/m2 in 1 Std. -
Mi, 19.06. 3:00 0.0 l/m2 in 1 Std. -
Mi, 19.06. 2:30 0.0 l/m2 in 1 Std. -
Ortszeit Stärke Spitze Richtung
km/h Bft. km/h Grad Sektor
Mi, 19.06. 2:00 7 2 11 360° N
Di, 18.06. 20:00 4 1 22 10° N
Di, 18.06. 14:00 7 2 22 170° S
Di, 18.06. 8:00 0 0 11 - -
Di, 18.06. 2:00 4 1 18 20° N
Mo, 17.06. 20:00 7 2 22 80° O
Mo, 17.06. 14:00 11 2 25 160° S
Mo, 17.06. 8:00 2 1 9 190° S
Ortszeit Stärke Spitze Richtung
km/h Bft. km/h Grad Sektor
Mi, 19.06. 5:30 6 1 7 10° N
Mi, 19.06. 5:20 6 1 - 10° N
Mi, 19.06. 5:10 6 1 - 350° N
Mi, 19.06. 5:00 6 1 9 10° N
Mi, 19.06. 4:50 6 1 - 10° N
Mi, 19.06. 4:40 7 2 - 350° N
Mi, 19.06. 4:30 6 1 7 340° N
Mi, 19.06. 4:00 6 1 11 350° N
Mi, 19.06. 3:30 6 1 11 10° N
Mi, 19.06. 3:00 4 1 11 360° N
Mi, 19.06. 2:30 6 1 9 330° NW
Ortszeit Untergrenze Bedeckung Gattung
total tief tief mittel hoch
Mi, 19.06. 2:00 5700 m 8/8 8/8 - - -
Di, 18.06. 20:00 7200 m 8/8 0/8 - - -
Di, 18.06. 14:00 9000 m 5/8 0/8 - - -
Di, 18.06. 8:00 8100 m 7/8 0/8 - - -
Di, 18.06. 2:00 1800 m 0/8 0/8 - - -
Mo, 17.06. 20:00 1500 m 4/8 4/8 - - -
Mo, 17.06. 14:00 1470 m 7/8 6/8 - - -
Mo, 17.06. 8:00 - 0/8 0/8 - - -
Ortszeit Bedeckungsgrad in Achtel und Wolkenuntergrenze
Mi, 19.06. 5:30 8(5100m) 8(6000m) 8(6600m)
Mi, 19.06. 5:20 8(5100m) 8(6000m) 8(6600m)
Mi, 19.06. 5:10 8(4800m) 8(5400m) 8(6600m)
Mi, 19.06. 5:00 8(4800m) 8(6300m)
Mi, 19.06. 4:50 8(4800m) 8(6300m)
Mi, 19.06. 4:40 8(5100m) 8(6300m)
Mi, 19.06. 4:30 8(4800m) 8(6300m)
Mi, 19.06. 4:00 8(4800m) 8(6000m) 8(7500m)
Mi, 19.06. 3:30 2(2100m) 8(4800m) 8(6300m)
Mi, 19.06. 3:00 4(2100m) 8(4800m) 8(6900m)
Mi, 19.06. 2:30 8(5100m) 8(8100m)
Ortszeit Luftdruck NN (hPa) Tendenz (hPa in 3 Std.)
Mi, 19.06. 2:00 1012 - 0,7
Di, 18.06. 20:00 1012 - 0,9
Di, 18.06. 14:00 1014 - 1,1
Di, 18.06. 8:00 1017 - 0,1
Di, 18.06. 2:00 1018 - 0,2
Mo, 17.06. 20:00 1018 - 1,2
Mo, 17.06. 14:00 1020 - 1,2
Mo, 17.06. 8:00 1023 + 0,4
Ortszeit Luftdruck NN (hPa) Tendenz (hPa in 3 Std.)
Mi, 19.06. 5:30 1011 - 0,9
Mi, 19.06. 5:20 1011 keine Meldung
Mi, 19.06. 5:10 1011 keine Meldung
Mi, 19.06. 5:00 1011 - 1,0
Mi, 19.06. 4:50 1011 keine Meldung
Mi, 19.06. 4:40 1011 keine Meldung
Mi, 19.06. 4:30 1011 - 1,1
Mi, 19.06. 4:00 1011 - 1,1
Mi, 19.06. 3:30 1011 - 1,1
Mi, 19.06. 3:00 1012 - 1,1
Mi, 19.06. 2:30 1012 - 0,8
Ortszeit Schneehöhe (cm)
Mi, 19.06. 2:00 -
Di, 18.06. 20:00 -
Di, 18.06. 14:00 -
Di, 18.06. 8:00 -
Di, 18.06. 2:00 -
Mo, 17.06. 20:00 -
Mo, 17.06. 14:00 -
Mo, 17.06. 8:00 -
Ortszeit Schneehöhe (cm)
Mi, 19.06. 5:30 -
Mi, 19.06. 5:20 -
Mi, 19.06. 5:10 -
Mi, 19.06. 5:00 -
Mi, 19.06. 4:50 -
Mi, 19.06. 4:40 -
Mi, 19.06. 4:30 -
Mi, 19.06. 4:00 -
Mi, 19.06. 3:30 -
Mi, 19.06. 3:00 -
Mi, 19.06. 2:30 -
Link zu dieser Seite / Seite empfehlen

Das Wetter in ...